Terminal Aerodrome Forecast
Issued by NWS Kansas City/Pleasant Hill, MO

Home | Current Version | Previous Version | Text Only | Print | Product List | Glossary On
Versions: 1 2 3 4 5 6 7 8 9 10 11 12
717
FTUS43 KEAX 101120
TAFMCI
TAF
KMCI 101120Z 1012/1112 13007KT P6SM OVC045
     FM101800 16012KT P6SM OVC050
     FM111100 17010KT P6SM OVC025=

USA.gov is the U.S. government's official web portal to all federal, state and local government web resources and services.